sensor_id;sensor_type;location;lat;lon;timestamp;pressure;altitude;pressure_sealevel;temperature;humidity
788;BME280;16074;42.708;23.312;2022-12-28T00:01:22;140218.56;;;7.91;100.00
788;BME280;16074;42.708;23.312;2022-12-28T00:03:52;140220.97;;;7.92;100.00
788;BME280;16074;42.708;23.312;2022-12-28T00:06:23;140220.97;;;7.92;100.00
788;BME280;16074;42.708;23.312;2022-12-28T00:08:52;140223.38;;;7.93;100.00
788;BME280;16074;42.708;23.312;2022-12-28T00:11:22;140225.72;;;7.94;100.00
788;BME280;16074;42.708;23.312;2022-12-28T00:13:57;140224.56;;;7.93;100.00
788;BME280;16074;42.708;23.312;2022-12-28T00:16:28;140230.53;;;7.96;100.00
788;BME280;16074;42.708;23.312;2022-12-28T00:18:58;140231.78;;;7.96;100.00
788;BME280;16074;42.708;23.312;2022-12-28T00:21:28;140237.75;;;7.99;100.00
788;BME280;16074;42.708;23.312;2022-12-28T00:23:58;140244.97;;;8.02;100.00
788;BME280;16074;42.708;23.312;2022-12-28T00:26:28;140255.78;;;8.06;100.00
788;BME280;16074;42.708;23.312;2022-12-28T00:28:57;140266.59;;;8.11;100.00
788;BME280;16074;42.708;23.312;2022-12-28T00:31:31;140273.81;;;8.14;100.00
788;BME280;16074;42.708;23.312;2022-12-28T00:34:00;140277.44;;;8.15;100.00
788;BME280;16074;42.708;23.312;2022-12-28T00:36:31;140293.06;;;8.22;100.00
788;BME280;16074;42.708;23.312;2022-12-28T00:39:20;140306.28;;;8.27;100.00
788;BME280;16074;42.708;23.312;2022-12-28T00:41:48;140312.31;;;8.29;100.00
788;BME280;16074;42.708;23.312;2022-12-28T00:44:16;140314.72;;;8.30;100.00
788;BME280;16074;42.708;23.312;2022-12-28T00:46:44;140330.31;;;8.37;100.00
788;BME280;16074;42.708;23.312;2022-12-28T00:49:13;140365.16;;;8.51;100.00
788;BME280;16074;42.708;23.312;2022-12-28T00:51:42;140336.34;;;8.39;100.00
788;BME280;16074;42.708;23.312;2022-12-28T00:54:11;140335.13;;;8.39;100.00
788;BME280;16074;42.708;23.312;2022-12-28T00:56:40;140314.72;;;8.30;100.00
788;BME280;16074;42.708;23.312;2022-12-28T00:59:10;140308.69;;;8.28;100.00
788;BME280;16074;42.708;23.312;2022-12-28T01:01:39;140309.91;;;8.28;100.00
788;BME280;16074;42.708;23.312;2022-12-28T01:04:07;140272.63;;;8.13;100.00
788;BME280;16074;42.708;23.312;2022-12-28T01:06:35;140261.78;;;8.09;100.00
788;BME280;16074;42.708;23.312;2022-12-28T01:09:07;140246.19;;;8.02;100.00
788;BME280;16074;42.708;23.312;2022-12-28T01:11:35;140252.16;;;8.05;100.00
788;BME280;16074;42.708;23.312;2022-12-28T01:14:03;140264.19;;;8.10;100.00
788;BME280;16074;42.708;23.312;2022-12-28T01:16:33;140241.38;;;8.00;100.00
788;BME280;16074;42.708;23.312;2022-12-28T01:19:05;140238.97;;;7.99;100.00
788;BME280;16074;42.708;23.312;2022-12-28T01:21:35;140229.38;;;7.95;100.00
788;BME280;16074;42.708;23.312;2022-12-28T01:24:04;140231.78;;;7.96;100.00
788;BME280;16074;42.708;23.312;2022-12-28T01:26:35;140230.53;;;7.96;100.00
788;BME280;16074;42.708;23.312;2022-12-28T01:29:03;140240.16;;;8.00;100.00
788;BME280;16074;42.708;23.312;2022-12-28T01:31:32;140247.38;;;8.03;100.00
788;BME280;16074;42.708;23.312;2022-12-28T01:34:01;140219.75;;;7.91;100.00
788;BME280;16074;42.708;23.312;2022-12-28T01:36:31;140217.34;;;7.90;100.00
788;BME280;16074;42.708;23.312;2022-12-28T01:39:02;140193.31;;;7.80;100.00
788;BME280;16074;42.708;23.312;2022-12-28T01:41:35;140200.53;;;7.83;100.00
788;BME280;16074;42.708;23.312;2022-12-28T01:47:18;140180.13;;;7.75;100.00
788;BME280;16074;42.708;23.312;2022-12-28T01:49:52;140192.16;;;7.80;100.00
788;BME280;16074;42.708;23.312;2022-12-28T01:52:28;140178.91;;;7.74;100.00
788;BME280;16074;42.708;23.312;2022-12-28T01:55:04;140150.13;;;7.62;100.00
788;BME280;16074;42.708;23.312;2022-12-28T01:57:37;140160.91;;;7.67;100.00
788;BME280;16074;42.708;23.312;2022-12-28T02:00:08;140160.91;;;7.67;100.00
788;BME280;16074;42.708;23.312;2022-12-28T02:02:41;140157.28;;;7.65;100.00
788;BME280;16074;42.708;23.312;2022-12-28T02:05:12;140133.31;;;7.55;100.00
788;BME280;16074;42.708;23.312;2022-12-28T02:07:44;140122.47;;;7.51;100.00
788;BME280;16074;42.708;23.312;2022-12-28T02:10:14;140121.31;;;7.50;100.00
788;BME280;16074;42.708;23.312;2022-12-28T02:13:03;140121.31;;;7.50;100.00
788;BME280;16074;42.708;23.312;2022-12-28T02:15:32;140114.09;;;7.47;100.00
788;BME280;16074;42.708;23.312;2022-12-28T02:18:01;140110.47;;;7.46;100.00
788;BME280;16074;42.708;23.312;2022-12-28T02:20:35;140109.28;;;7.45;100.00
788;BME280;16074;42.708;23.312;2022-12-28T02:26:32;140103.25;;;7.43;100.00
788;BME280;16074;42.708;23.312;2022-12-28T02:32:22;140072.09;;;7.30;100.00
788;BME280;16074;42.708;23.312;2022-12-28T02:34:55;140063.66;;;7.26;100.00
788;BME280;16074;42.708;23.312;2022-12-28T02:37:31;140052.88;;;7.22;100.00
788;BME280;16074;42.708;23.312;2022-12-28T02:40:05;140050.47;;;7.21;100.00
788;BME280;16074;42.708;23.312;2022-12-28T02:42:37;140045.69;;;7.19;100.00
788;BME280;16074;42.708;23.312;2022-12-28T02:45:08;140039.66;;;7.16;100.00
788;BME280;16074;42.708;23.312;2022-12-28T02:48:15;140033.66;;;7.14;100.00
788;BME280;16074;42.708;23.312;2022-12-28T02:51:20;140042.06;;;7.17;100.00
788;BME280;16074;42.708;23.312;2022-12-28T02:54:12;140033.66;;;7.14;100.00
788;BME280;16074;42.708;23.312;2022-12-28T02:57:14;140030.03;;;7.12;100.00
788;BME280;16074;42.708;23.312;2022-12-28T03:00:02;140033.66;;;7.14;100.00
788;BME280;16074;42.708;23.312;2022-12-28T03:02:41;140028.88;;;7.12;100.00
788;BME280;16074;42.708;23.312;2022-12-28T03:05:22;140042.06;;;7.17;100.00
788;BME280;16074;42.708;23.312;2022-12-28T03:08:15;140066.06;;;7.27;100.00
788;BME280;16074;42.708;23.312;2022-12-28T03:10:53;140067.28;;;7.28;100.00
788;BME280;16074;42.708;23.312;2022-12-28T03:13:27;140073.28;;;7.30;100.00
788;BME280;16074;42.708;23.312;2022-12-28T03:16:18;140085.28;;;7.35;100.00
788;BME280;16074;42.708;23.312;2022-12-28T03:18:53;140098.47;;;7.41;99.87
788;BME280;16074;42.708;23.312;2022-12-28T03:21:45;140115.28;;;7.48;98.91
788;BME280;16074;42.708;23.312;2022-12-28T03:24:32;140120.06;;;7.50;98.04
788;BME280;16074;42.708;23.312;2022-12-28T03:27:22;140153.72;;;7.64;97.49
788;BME280;16074;42.708;23.312;2022-12-28T03:30:12;140114.09;;;7.47;96.72
788;BME280;16074;42.708;23.312;2022-12-28T03:32:58;140105.66;;;7.44;96.87
788;BME280;16074;42.708;23.312;2022-12-28T03:35:34;140110.47;;;7.46;96.41
788;BME280;16074;42.708;23.312;2022-12-28T03:38:09;140060.09;;;7.25;96.42
788;BME280;16074;42.708;23.312;2022-12-28T03:40:46;140085.28;;;7.35;96.09
788;BME280;16074;42.708;23.312;2022-12-28T03:43:17;140057.69;;;7.24;95.27
788;BME280;16074;42.708;23.312;2022-12-28T03:46:12;140037.25;;;7.15;95.05
788;BME280;16074;42.708;23.312;2022-12-28T03:48:43;140019.25;;;7.08;94.42
788;BME280;16074;42.708;23.312;2022-12-28T03:51:15;139988.06;;;6.95;94.19
788;BME280;16074;42.708;23.312;2022-12-28T03:53:48;140001.28;;;7.01;94.72
788;BME280;16074;42.708;23.312;2022-12-28T03:56:22;140000.06;;;7.00;94.07
788;BME280;16074;42.708;23.312;2022-12-28T03:58:54;139966.44;;;6.86;94.05
788;BME280;16074;42.708;23.312;2022-12-28T04:01:34;139956.84;;;6.82;94.18
788;BME280;16074;42.708;23.312;2022-12-28T04:04:02;139938.88;;;6.75;94.72
788;BME280;16074;42.708;23.312;2022-12-28T04:06:32;139942.50;;;6.76;94.66
788;BME280;16074;42.708;23.312;2022-12-28T04:09:02;139940.09;;;6.75;94.58
788;BME280;16074;42.708;23.312;2022-12-28T04:11:35;139912.47;;;6.64;94.18
788;BME280;16074;42.708;23.312;2022-12-28T04:14:06;139916.09;;;6.65;94.29
788;BME280;16074;42.708;23.312;2022-12-28T04:16:40;139911.28;;;6.63;94.60
788;BME280;16074;42.708;23.312;2022-12-28T04:19:13;139911.28;;;6.63;94.48
788;BME280;16074;42.708;23.312;2022-12-28T04:21:43;139907.66;;;6.62;95.13
788;BME280;16074;42.708;23.312;2022-12-28T04:24:12;139901.69;;;6.59;93.88
788;BME280;16074;42.708;23.312;2022-12-28T04:26:41;139902.88;;;6.60;93.81
788;BME280;16074;42.708;23.312;2022-12-28T04:29:10;139912.47;;;6.64;93.11
788;BME280;16074;42.708;23.312;2022-12-28T04:31:47;139913.69;;;6.64;92.12
788;BME280;16074;42.708;23.312;2022-12-28T04:34:18;139930.50;;;6.71;91.87
788;BME280;16074;42.708;23.312;2022-12-28T04:36:55;139940.09;;;6.75;90.63
788;BME280;16074;42.708;23.312;2022-12-28T04:39:24;139942.50;;;6.76;90.22
788;BME280;16074;42.708;23.312;2022-12-28T04:41:53;139955.69;;;6.82;89.94
788;BME280;16074;42.708;23.312;2022-12-28T04:44:21;139972.47;;;6.89;89.60
788;BME280;16074;42.708;23.312;2022-12-28T04:46:49;139985.66;;;6.94;88.62
788;BME280;16074;42.708;23.312;2022-12-28T04:49:17;140002.47;;;7.01;87.89
788;BME280;16074;42.708;23.312;2022-12-28T04:51:46;140007.25;;;7.03;87.26
788;BME280;16074;42.708;23.312;2022-12-28T04:54:14;140033.66;;;7.14;87.21
788;BME280;16074;42.708;23.312;2022-12-28T04:56:44;140067.28;;;7.28;86.60
788;BME280;16074;42.708;23.312;2022-12-28T04:59:12;140055.28;;;7.23;86.08
788;BME280;16074;42.708;23.312;2022-12-28T05:01:40;140056.47;;;7.23;85.83
788;BME280;16074;42.708;23.312;2022-12-28T05:04:09;140060.09;;;7.25;84.23
788;BME280;16074;42.708;23.312;2022-12-28T05:06:37;140103.25;;;7.43;83.66
788;BME280;16074;42.708;23.312;2022-12-28T05:09:05;140126.09;;;7.52;83.52
788;BME280;16074;42.708;23.312;2022-12-28T05:11:34;140132.09;;;7.55;82.51
788;BME280;16074;42.708;23.312;2022-12-28T05:14:03;140153.72;;;7.64;81.80
788;BME280;16074;42.708;23.312;2022-12-28T05:16:31;140134.50;;;7.56;81.07
788;BME280;16074;42.708;23.312;2022-12-28T05:19:00;140112.88;;;7.47;79.56
788;BME280;16074;42.708;23.312;2022-12-28T05:21:28;140136.88;;;7.57;78.73
788;BME280;16074;42.708;23.312;2022-12-28T05:23:57;140133.31;;;7.55;80.09
788;BME280;16074;42.708;23.312;2022-12-28T05:26:27;140162.09;;;7.67;79.68
788;BME280;16074;42.708;23.312;2022-12-28T05:28:56;140171.69;;;7.71;78.58
788;BME280;16074;42.708;23.312;2022-12-28T05:31:26;140151.31;;;7.63;77.99
788;BME280;16074;42.708;23.312;2022-12-28T05:33:55;140130.91;;;7.54;78.54
788;BME280;16074;42.708;23.312;2022-12-28T05:36:24;140112.88;;;7.47;78.43
788;BME280;16074;42.708;23.312;2022-12-28T05:38:54;140092.47;;;7.38;78.61
788;BME280;16074;42.708;23.312;2022-12-28T05:41:23;140085.28;;;7.35;79.85
788;BME280;16074;42.708;23.312;2022-12-28T05:43:53;140062.47;;;7.26;79.61
788;BME280;16074;42.708;23.312;2022-12-28T05:46:22;140045.69;;;7.19;79.99
788;BME280;16074;42.708;23.312;2022-12-28T05:48:53;140068.47;;;7.28;79.84
788;BME280;16074;42.708;23.312;2022-12-28T05:51:24;140045.69;;;7.19;80.51
788;BME280;16074;42.708;23.312;2022-12-28T05:53:53;140027.66;;;7.11;81.58
788;BME280;16074;42.708;23.312;2022-12-28T05:56:23;140052.88;;;7.22;82.72
788;BME280;16074;42.708;23.312;2022-12-28T05:58:52;140070.88;;;7.29;82.05
788;BME280;16074;42.708;23.312;2022-12-28T06:01:23;140070.88;;;7.29;82.37
788;BME280;16074;42.708;23.312;2022-12-28T06:03:54;140069.69;;;7.29;82.19
788;BME280;16074;42.708;23.312;2022-12-28T06:06:23;140097.28;;;7.40;82.43
788;BME280;16074;42.708;23.312;2022-12-28T06:08:52;140097.28;;;7.40;82.87
788;BME280;16074;42.708;23.312;2022-12-28T06:11:22;140091.25;;;7.38;82.72
788;BME280;16074;42.708;23.312;2022-12-28T06:13:51;140087.69;;;7.36;83.02
788;BME280;16074;42.708;23.312;2022-12-28T06:16:21;140117.69;;;7.49;83.25
788;BME280;16074;42.708;23.312;2022-12-28T06:18:50;140082.88;;;7.34;84.33
788;BME280;16074;42.708;23.312;2022-12-28T06:21:22;140088.84;;;7.37;84.40
788;BME280;16074;42.708;23.312;2022-12-28T06:23:50;140117.69;;;7.49;84.50
788;BME280;16074;42.708;23.312;2022-12-28T06:26:20;140106.88;;;7.44;84.88
788;BME280;16074;42.708;23.312;2022-12-28T06:28:48;140116.50;;;7.48;84.79
788;BME280;16074;42.708;23.312;2022-12-28T06:31:18;140133.31;;;7.55;85.22
788;BME280;16074;42.708;23.312;2022-12-28T06:33:48;140160.91;;;7.67;85.19
788;BME280;16074;42.708;23.312;2022-12-28T06:36:22;140140.53;;;7.58;86.04
788;BME280;16074;42.708;23.312;2022-12-28T06:38:51;140139.28;;;7.58;86.45
788;BME280;16074;42.708;23.312;2022-12-28T06:41:20;140105.66;;;7.44;86.69
788;BME280;16074;42.708;23.312;2022-12-28T06:43:49;140105.66;;;7.44;87.30
788;BME280;16074;42.708;23.312;2022-12-28T06:46:19;140120.06;;;7.50;87.38
788;BME280;16074;42.708;23.312;2022-12-28T06:48:48;140150.13;;;7.62;86.90
788;BME280;16074;42.708;23.312;2022-12-28T06:51:18;140123.72;;;7.51;86.59
788;BME280;16074;42.708;23.312;2022-12-28T06:53:49;140081.69;;;7.34;87.54
788;BME280;16074;42.708;23.312;2022-12-28T06:56:20;140093.66;;;7.39;87.47
788;BME280;16074;42.708;23.312;2022-12-28T06:58:49;140133.31;;;7.55;86.60
788;BME280;16074;42.708;23.312;2022-12-28T07:01:28;140166.91;;;7.69;86.89
788;BME280;16074;42.708;23.312;2022-12-28T07:03:58;140170.53;;;7.71;86.95
788;BME280;16074;42.708;23.312;2022-12-28T07:06:28;140188.50;;;7.78;85.06
788;BME280;16074;42.708;23.312;2022-12-28T07:09:03;140134.50;;;7.56;84.88
788;BME280;16074;42.708;23.312;2022-12-28T07:11:32;140165.72;;;7.69;85.62
788;BME280;16074;42.708;23.312;2022-12-28T07:14:00;140200.53;;;7.83;85.61
788;BME280;16074;42.708;23.312;2022-12-28T07:16:29;140230.53;;;7.96;84.84
788;BME280;16074;42.708;23.312;2022-12-28T07:18:57;140246.19;;;8.02;85.93
788;BME280;16074;42.708;23.312;2022-12-28T07:21:27;140261.78;;;8.09;85.27
788;BME280;16074;42.708;23.312;2022-12-28T07:23:56;140275.03;;;8.14;84.51
788;BME280;16074;42.708;23.312;2022-12-28T07:26:28;140297.88;;;8.24;83.22
788;BME280;16074;42.708;23.312;2022-12-28T07:28:58;140312.31;;;8.29;83.14
788;BME280;16074;42.708;23.312;2022-12-28T07:31:29;140324.31;;;8.34;82.82
788;BME280;16074;42.708;23.312;2022-12-28T07:34:00;140341.16;;;8.41;81.75
788;BME280;16074;42.708;23.312;2022-12-28T07:36:30;140377.16;;;8.56;81.55
788;BME280;16074;42.708;23.312;2022-12-28T07:38:59;140415.63;;;8.72;80.70
788;BME280;16074;42.708;23.312;2022-12-28T07:41:30;140446.91;;;8.85;78.41
788;BME280;16074;42.708;23.312;2022-12-28T07:44:02;140445.69;;;8.85;78.33
788;BME280;16074;42.708;23.312;2022-12-28T07:46:33;140457.69;;;8.90;76.01
788;BME280;16074;42.708;23.312;2022-12-28T07:49:02;140487.78;;;9.02;75.64
788;BME280;16074;42.708;23.312;2022-12-28T07:51:31;140531.03;;;9.20;75.64
788;BME280;16074;42.708;23.312;2022-12-28T07:54:01;140555.09;;;9.30;75.30
788;BME280;16074;42.708;23.312;2022-12-28T07:56:31;140588.78;;;9.44;74.53
788;BME280;16074;42.708;23.312;2022-12-28T07:59:00;140580.34;;;9.41;73.54
788;BME280;16074;42.708;23.312;2022-12-28T08:01:31;140603.22;;;9.50;72.83
788;BME280;16074;42.708;23.312;2022-12-28T08:04:02;140544.31;;;9.26;71.87
788;BME280;16074;42.708;23.312;2022-12-28T08:06:34;140484.16;;;9.01;73.22
788;BME280;16074;42.708;23.312;2022-12-28T08:09:03;140525.06;;;9.18;72.83
788;BME280;16074;42.708;23.312;2022-12-28T08:11:36;140544.31;;;9.26;72.84
788;BME280;16074;42.708;23.312;2022-12-28T08:14:05;140525.06;;;9.18;73.31
788;BME280;16074;42.708;23.312;2022-12-28T08:16:35;140549.13;;;9.28;72.07
788;BME280;16074;42.708;23.312;2022-12-28T08:19:04;140493.78;;;9.05;72.33
788;BME280;16074;42.708;23.312;2022-12-28T08:21:34;140474.53;;;8.97;72.82
788;BME280;16074;42.708;23.312;2022-12-28T08:24:03;140428.88;;;8.78;72.76
788;BME280;16074;42.708;23.312;2022-12-28T08:26:35;140440.88;;;8.83;72.88
788;BME280;16074;42.708;23.312;2022-12-28T08:29:07;140463.75;;;8.92;72.80
788;BME280;16074;42.708;23.312;2022-12-28T08:31:37;140373.59;;;8.55;72.86
788;BME280;16074;42.708;23.312;2022-12-28T08:34:08;140366.38;;;8.52;72.37
788;BME280;16074;42.708;23.312;2022-12-28T08:36:37;140397.63;;;8.65;72.39
788;BME280;16074;42.708;23.312;2022-12-28T08:39:06;140403.63;;;8.67;72.56
788;BME280;16074;42.708;23.312;2022-12-28T08:41:36;140420.44;;;8.74;72.80
788;BME280;16074;42.708;23.312;2022-12-28T08:44:05;140388.00;;;8.61;72.55
788;BME280;16074;42.708;23.312;2022-12-28T08:46:34;140371.19;;;8.54;73.19
788;BME280;16074;42.708;23.312;2022-12-28T08:49:03;140294.25;;;8.22;73.76
788;BME280;16074;42.708;23.312;2022-12-28T08:51:33;140300.28;;;8.25;74.16
788;BME280;16074;42.708;23.312;2022-12-28T08:54:02;140281.06;;;8.17;75.44
788;BME280;16074;42.708;23.312;2022-12-28T08:56:32;140320.69;;;8.33;74.62
788;BME280;16074;42.708;23.312;2022-12-28T08:59:03;140309.91;;;8.28;74.66
788;BME280;16074;42.708;23.312;2022-12-28T09:01:33;140293.06;;;8.22;75.54
788;BME280;16074;42.708;23.312;2022-12-28T09:04:12;140330.31;;;8.37;76.06
788;BME280;16074;42.708;23.312;2022-12-28T09:06:40;140339.94;;;8.41;79.75
788;BME280;16074;42.708;23.312;2022-12-28T09:09:11;140327.91;;;8.36;80.51
788;BME280;16074;42.708;23.312;2022-12-28T09:11:40;140314.72;;;8.30;82.82
788;BME280;16074;42.708;23.312;2022-12-28T09:14:11;140319.50;;;8.32;83.12
788;BME280;16074;42.708;23.312;2022-12-28T09:16:49;140331.53;;;8.37;83.23
788;BME280;16074;42.708;23.312;2022-12-28T09:19:18;140306.28;;;8.27;82.48
788;BME280;16074;42.708;23.312;2022-12-28T09:21:47;140321.91;;;8.33;82.31
788;BME280;16074;42.708;23.312;2022-12-28T09:24:18;140333.94;;;8.38;83.14
788;BME280;16074;42.708;23.312;2022-12-28T09:26:47;140353.16;;;8.46;83.57
788;BME280;16074;42.708;23.312;2022-12-28T09:29:20;140348.38;;;8.44;84.73
788;BME280;16074;42.708;23.312;2022-12-28T09:31:48;140374.75;;;8.55;84.24
788;BME280;16074;42.708;23.312;2022-12-28T09:34:16;140359.16;;;8.49;85.32
788;BME280;16074;42.708;23.312;2022-12-28T09:37:04;140381.97;;;8.58;85.40
788;BME280;16074;42.708;23.312;2022-12-28T09:39:32;140394.00;;;8.63;85.33
788;BME280;16074;42.708;23.312;2022-12-28T09:42:02;140419.28;;;8.74;84.01
788;BME280;16074;42.708;23.312;2022-12-28T09:44:42;140426.47;;;8.77;83.21
788;BME280;16074;42.708;23.312;2022-12-28T09:47:27;140444.50;;;8.84;83.69
788;BME280;16074;42.708;23.312;2022-12-28T09:50:05;140449.31;;;8.86;82.03
788;BME280;16074;42.708;23.312;2022-12-28T09:52:35;140474.53;;;8.97;81.84
788;BME280;16074;42.708;23.312;2022-12-28T09:55:16;140443.28;;;8.84;78.33
788;BME280;16074;42.708;23.312;2022-12-28T09:57:48;140433.66;;;8.80;78.37
788;BME280;16074;42.708;23.312;2022-12-28T10:00:20;140478.16;;;8.98;77.62
788;BME280;16074;42.708;23.312;2022-12-28T10:02:51;140468.53;;;8.94;76.64
788;BME280;16074;42.708;23.312;2022-12-28T10:05:21;140488.97;;;9.03;76.02
788;BME280;16074;42.708;23.312;2022-12-28T10:07:51;140488.97;;;9.03;74.48
788;BME280;16074;42.708;23.312;2022-12-28T10:10:21;140486.56;;;9.02;73.45
788;BME280;16074;42.708;23.312;2022-12-28T10:12:50;140534.69;;;9.22;73.97
788;BME280;16074;42.708;23.312;2022-12-28T10:15:21;140551.53;;;9.29;73.57
788;BME280;16074;42.708;23.312;2022-12-28T10:17:49;140565.97;;;9.35;73.12
788;BME280;16074;42.708;23.312;2022-12-28T10:20:19;140605.66;;;9.51;73.82
788;BME280;16074;42.708;23.312;2022-12-28T10:22:51;140635.69;;;9.63;73.63
788;BME280;16074;42.708;23.312;2022-12-28T10:25:21;140628.47;;;9.60;70.41
788;BME280;16074;42.708;23.312;2022-12-28T10:27:51;140653.72;;;9.71;69.60
788;BME280;16074;42.708;23.312;2022-12-28T10:30:23;140658.53;;;9.73;69.80
788;BME280;16074;42.708;23.312;2022-12-28T10:32:54;140677.81;;;9.81;69.38
788;BME280;16074;42.708;23.312;2022-12-28T10:35:31;140693.47;;;9.87;69.64
788;BME280;16074;42.708;23.312;2022-12-28T10:38:03;140713.91;;;9.96;70.43
788;BME280;16074;42.708;23.312;2022-12-28T10:40:36;140735.63;;;10.05;69.31
788;BME280;16074;42.708;23.312;2022-12-28T10:43:05;140745.25;;;10.09;69.18
788;BME280;16074;42.708;23.312;2022-12-28T10:45:48;140772.94;;;10.20;68.02
788;BME280;16074;42.708;23.312;2022-12-28T10:48:18;140795.78;;;10.30;68.34
788;BME280;16074;42.708;23.312;2022-12-28T10:50:51;140789.78;;;10.27;67.20
788;BME280;16074;42.708;23.312;2022-12-28T10:53:29;140842.72;;;10.49;67.04
788;BME280;16074;42.708;23.312;2022-12-28T10:56:13;140840.31;;;10.48;66.08
788;BME280;16074;42.708;23.312;2022-12-28T10:58:45;140857.19;;;10.55;66.30
788;BME280;16074;42.708;23.312;2022-12-28T11:01:23;140846.38;;;10.51;65.16
788;BME280;16074;42.708;23.312;2022-12-28T11:04:02;140874.03;;;10.62;66.39
788;BME280;16074;42.708;23.312;2022-12-28T11:06:33;140902.97;;;10.74;63.90
788;BME280;16074;42.708;23.312;2022-12-28T11:09:14;140830.72;;;10.44;64.22
788;BME280;16074;42.708;23.312;2022-12-28T11:11:44;140827.09;;;10.43;65.13
788;BME280;16074;42.708;23.312;2022-12-28T11:14:17;140812.63;;;10.37;66.17
788;BME280;16074;42.708;23.312;2022-12-28T11:16:52;140841.53;;;10.49;65.52
788;BME280;16074;42.708;23.312;2022-12-28T11:19:21;140831.91;;;10.45;65.18
788;BME280;16074;42.708;23.312;2022-12-28T11:21:51;140777.75;;;10.22;66.91
788;BME280;16074;42.708;23.312;2022-12-28T11:24:22;140754.88;;;10.13;66.38
788;BME280;16074;42.708;23.312;2022-12-28T11:26:53;140744.03;;;10.08;66.76
788;BME280;16074;42.708;23.312;2022-12-28T11:29:21;140738.03;;;10.06;67.52
788;BME280;16074;42.708;23.312;2022-12-28T11:31:55;140782.56;;;10.24;66.83
788;BME280;16074;42.708;23.312;2022-12-28T11:34:28;140803.00;;;10.33;67.24
788;BME280;16074;42.708;23.312;2022-12-28T11:36:58;140806.66;;;10.34;66.70
788;BME280;16074;42.708;23.312;2022-12-28T11:39:41;140819.88;;;10.40;66.46
788;BME280;16074;42.708;23.312;2022-12-28T11:45:49;140825.91;;;10.42;66.28
788;BME280;16074;42.708;23.312;2022-12-28T11:48:44;140839.13;;;10.48;65.92
788;BME280;16074;42.708;23.312;2022-12-28T11:51:16;140834.31;;;10.46;66.69
788;BME280;16074;42.708;23.312;2022-12-28T11:53:51;140851.19;;;10.53;66.14
788;BME280;16074;42.708;23.312;2022-12-28T11:56:20;140853.59;;;10.54;66.23
788;BME280;16074;42.708;23.312;2022-12-28T11:59:19;140865.63;;;10.59;65.24
788;BME280;16074;42.708;23.312;2022-12-28T12:01:50;140865.63;;;10.59;66.07
788;BME280;16074;42.708;23.312;2022-12-28T12:04:39;140859.59;;;10.56;66.06
788;BME280;16074;42.708;23.312;2022-12-28T12:07:43;140833.13;;;10.45;67.10
788;BME280;16074;42.708;23.312;2022-12-28T12:10:33;140815.06;;;10.38;66.88
788;BME280;16074;42.708;23.312;2022-12-28T12:13:39;140817.47;;;10.39;67.64
788;BME280;16074;42.708;23.312;2022-12-28T12:16:21;140811.47;;;10.36;68.25
788;BME280;16074;42.708;23.312;2022-12-28T12:18:54;140805.41;;;10.34;68.71
788;BME280;16074;42.708;23.312;2022-12-28T12:21:29;140833.13;;;10.45;68.89
788;BME280;16074;42.708;23.312;2022-12-28T12:24:02;140831.91;;;10.45;68.60
788;BME280;16074;42.708;23.312;2022-12-28T12:26:39;140843.97;;;10.50;69.20
788;BME280;16074;42.708;23.312;2022-12-28T12:29:14;140843.97;;;10.50;69.30
788;BME280;16074;42.708;23.312;2022-12-28T12:31:47;140829.50;;;10.44;68.83
788;BME280;16074;42.708;23.312;2022-12-28T12:34:23;140836.72;;;10.47;68.56
788;BME280;16074;42.708;23.312;2022-12-28T12:43:27;140815.06;;;10.38;69.21
788;BME280;16074;42.708;23.312;2022-12-28T12:49:11;140762.13;;;10.16;71.56
788;BME280;16074;42.708;23.312;2022-12-28T12:51:48;140781.34;;;10.24;72.04
788;BME280;16074;42.708;23.312;2022-12-28T12:54:30;140787.38;;;10.26;71.46
788;BME280;16074;42.708;23.312;2022-12-28T12:57:07;140803.00;;;10.33;71.22
788;BME280;16074;42.708;23.312;2022-12-28T12:59:51;140780.16;;;10.23;72.04
788;BME280;16074;42.708;23.312;2022-12-28T13:02:49;140754.88;;;10.13;71.60
788;BME280;16074;42.708;23.312;2022-12-28T13:05:21;140741.63;;;10.07;72.68
788;BME280;16074;42.708;23.312;2022-12-28T13:07:52;140735.63;;;10.05;72.83
788;BME280;16074;42.708;23.312;2022-12-28T13:10:26;140747.66;;;10.10;73.30
788;BME280;16074;42.708;23.312;2022-12-28T13:12:58;140732.00;;;10.03;74.62
788;BME280;16074;42.708;23.312;2022-12-28T13:15:27;140738.03;;;10.06;74.60
788;BME280;16074;42.708;23.312;2022-12-28T13:18:00;140729.59;;;10.02;74.81
788;BME280;16074;42.708;23.312;2022-12-28T13:20:54;140724.78;;;10.00;75.00
788;BME280;16074;42.708;23.312;2022-12-28T13:23:23;140706.69;;;9.93;75.82
788;BME280;16074;42.708;23.312;2022-12-28T13:25:55;140693.47;;;9.87;75.96
788;BME280;16074;42.708;23.312;2022-12-28T13:28:27;140689.84;;;9.86;76.82
788;BME280;16074;42.708;23.312;2022-12-28T13:30:59;140706.69;;;9.93;76.66
788;BME280;16074;42.708;23.312;2022-12-28T13:33:29;140700.69;;;9.90;76.87
788;BME280;16074;42.708;23.312;2022-12-28T13:36:13;140700.69;;;9.90;76.28
788;BME280;16074;42.708;23.312;2022-12-28T13:38:42;140685.03;;;9.84;76.39
788;BME280;16074;42.708;23.312;2022-12-28T13:41:20;140681.44;;;9.82;76.86
788;BME280;16074;42.708;23.312;2022-12-28T13:44:13;140701.88;;;9.91;75.83
788;BME280;16074;42.708;23.312;2022-12-28T13:46:46;140695.88;;;9.88;75.71
788;BME280;16074;42.708;23.312;2022-12-28T13:49:17;140692.25;;;9.87;76.06
788;BME280;16074;42.708;23.312;2022-12-28T13:51:48;140682.63;;;9.83;76.04
788;BME280;16074;42.708;23.312;2022-12-28T13:54:20;140689.84;;;9.86;76.30
788;BME280;16074;42.708;23.312;2022-12-28T13:56:53;140693.47;;;9.87;75.28
788;BME280;16074;42.708;23.312;2022-12-28T13:59:43;140693.47;;;9.87;75.08
788;BME280;16074;42.708;23.312;2022-12-28T14:02:14;140687.44;;;9.85;75.19